首页
METAR-TAF:

METAR-TAF

机场 :

上海浦东国际机场

上海 / 浦东, 中华人民共和国

纬度: 31-07N, 经度: 121-46E, 海拔: 4米

当前天气观测

该预报发布于21分钟前的20:30 UTC
风速10节,风向南转南东
温度 27°C
湿度 89%
气压 1003 hPa
能见度10公里或以上
少量云层高于2000英尺

METAR: ZSPD 192030Z 15005MPS 9999 FEW020 27/25 Q1003 NOSIG

时间: 04:51 (20:51 UTC)

预报

该预报发布于5小时和40分钟前的15:11 UTC
预报有效从19日的 18点(UTC)到 20日的 18点(UTC)
风速10节,风向东南
能見度: 6000
多云层高于1500英尺

TAF: ZSPD 191511Z 1918/2018 14005MPS 6000 BKN015 TX32/2006Z TN26/1921Z

超过4000个机场的气象观测和天气预报(METAR&TAF报告)。

可查询的气象台以黄色和红色小点在地图上表示。

将鼠标移到小点上方,可查看气象台名称。

然后点击查看天气观测和预报。

如需切换地图:点击带黑十字的绿色按钮放大地图;点击带横线的绿色按钮缩小地图;或者点击绿色箭头查看邻近地区的地图。


METAR-TAF: